This is the latest recevied weather packets stored in our database for station/object KMASWX. If no packets are shown the sender has not sent any weather packets the latest 10 day(s).
| Time | Temp. | Humidity | Pressure | Rain* | Wind** | Luminosity | Snow |
|---|---|---|---|---|---|---|---|
| 1777155591 | 16.11° C | 16% | - | 0 mm | - | - | - |
| 1777155287 | 15.56° C | 16% | - | 0 mm | - | - | - |
| 1777154980 | 16.11° C | 15% | - | 0 mm | - | - | - |
| 1777154677 | 15.56° C | 14% | - | 0 mm | - | - | - |
| 1777154373 | 16.11° C | 16% | - | 0 mm | - | - | - |
| 1777154070 | 16.11° C | 17% | - | 0 mm | - | - | - |
| 1777153460 | 15.56° C | 16% | - | 0 mm | - | - | - |
| 1777152850 | 16.11° C | 16% | - | 0 mm | - | - | - |
| 1777152546 | 15.56° C | 18% | - | 0 mm | - | - | - |
| 1777151939 | 15.56° C | 16% | - | 0 mm | - | - | - |
| 1777151633 | 15° C | 16% | - | 0 mm | - | - | - |
| 1777151328 | 15° C | 17% | - | 0 mm | - | - | - |
| 1777150417 | 15° C | 18% | - | 0 mm | - | - | - |
| 1777149809 | 16.67° C | 16% | - | 0 mm | - | - | - |
| 1777149506 | 15° C | 20% | - | 0 mm | - | - | - |
| 1777149202 | 15° C | 17% | - | 0 mm | - | - | - |
| 1777148896 | 15.56° C | 17% | - | 0 mm | - | - | - |
| 1777148592 | 15° C | 18% | - | 0 mm | - | - | - |
| 1777148288 | 14.44° C | 17% | - | 0 mm | - | - | - |
| 1777147982 | 13.89° C | 18% | - | 0 mm | - | - | - |
| 1777147677 | 14.44° C | 16% | - | 0 mm | - | - | - |
| 1777146763 | 13.89° C | 21% | - | 0 mm | - | - | - |
| 1777146459 | 13.89° C | 21% | - | 0 mm | - | - | - |
| 1777146156 | 13.89° C | 20% | - | 0 mm | - | - | - |
| 1777145850 | 13.33° C | 22% | - | 0 mm | - | - | - |
* Rain latest 24 hours (hover to see other rain measurements)
** Current wind speed in m/s (hover to see current wind gust speed)